Time;durP1;ratioP1;P1;durP2;ratioP2;P2;SDS_P1;SDS_P2;PMS_P1;PMS_P2;Temp;Humidity;BMP_temperature;BMP_pressure;BME280_temperature;BME280_humidity;BME280_pressure;Samples;Min_cycle;Max_cycle;Signal;HPM_P1;HPM_P2
2022/08/19 00:01:55;;;;;;;14.67;13.47;;;24.70;79.10;;;;;;5035643;28;21091;-66
2022/08/19 00:04:27;;;;;;;15.50;14.20;;;24.70;79.00;;;;;;5052489;28;20453;-66
2022/08/19 00:06:57;;;;;;;17.73;16.20;;;24.90;78.90;;;;;;5050346;28;20454;-66
2022/08/19 00:09:27;;;;;;;18.90;17.13;;;25.00;78.20;;;;;;5054526;28;20445;-66
2022/08/19 00:11:56;;;;;;;16.63;14.97;;;25.10;77.70;;;;;;5058778;28;20539;-66
2022/08/19 00:14:26;;;;;;;18.03;16.37;;;25.10;77.90;;;;;;5058467;28;20835;-65
2022/08/19 00:16:54;;;;;;;11.27;10.23;;;25.20;77.60;;;;;;5041451;28;20511;-65
2022/08/19 00:19:24;;;;;;;16.00;14.60;;;25.20;77.40;;;;;;5073411;28;20485;-65
2022/08/19 00:21:53;;;;;;;12.10;11.00;;;25.30;76.90;;;;;;5047868;28;20510;-66
2022/08/19 00:24:23;;;;;;;9.17;8.47;;;25.40;76.50;;;;;;5034772;28;20451;-66
2022/08/19 00:26:53;;;;;;;9.63;8.93;;;25.60;76.00;;;;;;5038304;28;20455;-68
2022/08/19 00:29:23;;;;;;;11.17;10.27;;;25.70;75.10;;;;;;5073296;28;20548;-65
2022/08/19 00:31:55;;;;;;;9.47;8.80;;;25.90;75.10;;;;;;5050127;28;20501;-67
2022/08/19 00:34:24;;;;;;;12.17;11.10;;;26.00;74.20;;;;;;5039147;28;20509;-66
2022/08/19 00:36:53;;;;;;;13.47;12.13;;;26.10;74.20;;;;;;5056540;28;20891;-66
2022/08/19 00:39:22;;;;;;;12.97;11.97;;;26.10;73.80;;;;;;5054503;28;20449;-66
2022/08/19 00:41:52;;;;;;;11.67;10.70;;;26.10;73.60;;;;;;5063070;28;20935;-66
2022/08/19 00:44:23;;;;;;;10.60;9.80;;;26.20;73.60;;;;;;5064875;28;20540;-66
2022/08/19 00:46:58;;;;;;;11.73;10.80;;;26.30;73.00;;;;;;5061501;28;20472;-69
2022/08/19 00:49:32;;;;;;;16.53;15.20;;;26.30;73.00;;;;;;5073200;28;20463;-67
2022/08/19 00:52:05;;;;;;;10.67;9.87;;;26.40;72.60;;;;;;5066737;28;20444;-66
2022/08/19 00:54:36;;;;;;;11.00;10.17;;;26.50;72.60;;;;;;5058811;28;20477;-66
2022/08/19 00:57:07;;;;;;;16.27;14.67;;;26.50;72.60;;;;;;5072953;28;20949;-66
2022/08/19 00:59:37;;;;;;;15.43;14.03;;;26.50;72.30;;;;;;5070965;28;20490;-69
2022/08/19 01:02:27;;;;;;;17.80;16.27;;;26.50;72.30;;;;;;5043006;28;20577;-65
2022/08/19 01:04:56;;;;;;;12.30;11.20;;;26.40;72.10;;;;;;5067774;28;20930;-66
2022/08/19 01:07:24;;;;;;;19.43;17.83;;;26.40;72.50;;;;;;5050403;28;20493;-66
2022/08/19 01:09:55;;;;;;;22.07;19.77;;;26.30;72.50;;;;;;5053404;28;20474;-66
2022/08/19 01:12:24;;;;;;;17.23;15.77;;;26.20;72.40;;;;;;5053173;28;20891;-66
2022/08/19 01:14:54;;;;;;;22.00;20.10;;;26.10;72.90;;;;;;5055938;28;20499;-65
2022/08/19 01:17:22;;;;;;;18.40;16.90;;;26.10;72.90;;;;;;5053428;28;20481;-65
2022/08/19 01:19:51;;;;;;;13.53;12.50;;;26.10;73.20;;;;;;5038865;28;20437;-66
2022/08/19 01:22:28;;;;;;;15.10;13.80;;;26.10;73.30;;;;;;5050092;28;20554;-66
2022/08/19 01:25:01;;;;;;;13.57;12.10;;;26.20;73.20;;;;;;5051714;28;20450;-65
2022/08/19 01:27:40;;;;;;;12.27;11.27;;;26.10;73.00;;;;;;5052845;28;20443;-68
2022/08/19 01:30:12;;;;;;;17.53;15.90;;;26.30;73.20;;;;;;5044025;28;20547;-66
2022/08/19 01:32:40;;;;;;;14.27;12.97;;;26.30;72.50;;;;;;5037441;28;20472;-66
2022/08/19 01:35:10;;;;;;;14.60;13.20;;;26.30;72.50;;;;;;5040466;28;20563;-66
2022/08/19 01:37:52;;;;;;;9.93;9.23;;;26.40;72.50;;;;;;5071237;28;20451;-68
2022/08/19 01:40:23;;;;;;;10.37;9.47;;;26.40;72.40;;;;;;5056879;28;20924;-66
2022/08/19 01:42:52;;;;;;;17.80;16.20;;;26.50;72.10;;;;;;5046310;28;20549;-66
2022/08/19 01:45:23;;;;;;;10.33;9.63;;;26.50;71.70;;;;;;5054415;28;20920;-66
2022/08/19 01:47:51;;;;;;;16.63;15.13;;;26.60;71.90;;;;;;5032121;28;20454;-66
2022/08/19 01:50:30;;;;;;;15.40;14.00;;;26.60;71.20;;;;;;5032571;28;20520;-67
2022/08/19 01:53:01;;;;;;;15.20;13.80;;;26.60;71.00;;;;;;5032379;28;20540;-67
2022/08/19 01:55:36;;;;;;;11.30;10.40;;;26.60;71.40;;;;;;5031919;28;20462;-66
2022/08/19 01:58:12;;;;;;;18.83;17.17;;;26.60;71.60;;;;;;5035189;28;20935;-68
2022/08/19 02:00:42;;;;;;;13.03;11.97;;;26.50;71.00;;;;;;5037970;28;20957;-67
2022/08/19 02:03:11;;;;;;;20.37;18.30;;;26.40;71.60;;;;;;5055693;28;20492;-66
2022/08/19 02:05:41;;;;;;;11.23;10.33;;;26.40;71.50;;;;;;5045666;28;20500;-67
2022/08/19 02:08:11;;;;;;;16.93;15.50;;;26.40;71.50;;;;;;5044605;28;20506;-66
2022/08/19 02:10:42;;;;;;;15.97;14.70;;;26.50;71.40;;;;;;5031327;28;20847;-67
2022/08/19 02:13:11;;;;;;;12.30;11.33;;;26.30;71.60;;;;;;5064620;28;20460;-66
2022/08/19 02:15:39;;;;;;;13.07;12.00;;;26.30;72.00;;;;;;5044447;28;20968;-67
2022/08/19 02:18:08;;;;;;;17.53;16.00;;;26.40;72.00;;;;;;5058648;28;21000;-66
2022/08/19 02:20:37;;;;;;;16.50;15.10;;;26.40;71.60;;;;;;5071633;28;20496;-66
2022/08/19 02:23:06;;;;;;;11.73;10.73;;;26.40;71.50;;;;;;5071972;28;20467;-66
2022/08/19 02:25:47;;;;;;;18.33;16.73;;;26.50;71.60;;;;;;5031454;28;20815;-66
2022/08/19 02:28:16;;;;;;;13.20;12.10;;;26.50;71.60;;;;;;5056637;28;20541;-67
2022/08/19 02:30:48;;;;;;;13.67;12.57;;;26.60;71.30;;;;;;5051446;28;20467;-67
2022/08/19 02:33:17;;;;;;;12.30;11.30;;;26.60;70.90;;;;;;5035948;28;20449;-66
2022/08/19 02:35:46;;;;;;;12.50;11.60;;;26.70;70.90;;;;;;5042141;28;20471;-66
2022/08/19 02:38:27;;;;;;;11.83;10.90;;;26.70;70.80;;;;;;5055345;28;20451;-67
2022/08/19 02:40:59;;;;;;;11.50;10.70;;;26.70;71.00;;;;;;5065998;28;20542;-66
2022/08/19 02:43:29;;;;;;;14.17;12.97;;;26.70;71.10;;;;;;5040461;28;20520;-67
2022/08/19 02:46:09;;;;;;;16.67;15.30;;;26.80;70.70;;;;;;5060411;28;20987;-70
2022/08/19 02:48:37;;;;;;;13.33;12.00;;;26.80;70.30;;;;;;5052800;28;21281;-66
2022/08/19 02:51:08;;;;;;;13.67;12.53;;;26.80;70.60;;;;;;5071065;28;21036;-66
2022/08/19 02:53:37;;;;;;;17.50;15.97;;;26.80;70.50;;;;;;5075014;28;20548;-66
2022/08/19 02:56:12;;;;;;;11.70;10.90;;;26.80;70.60;;;;;;5074798;28;20775;-66
2022/08/19 02:58:41;;;;;;;14.17;13.07;;;26.60;70.60;;;;;;5072611;28;20470;-66
2022/08/19 03:01:20;;;;;;;16.20;14.80;;;26.60;70.80;;;;;;5051152;28;20447;-66
2022/08/19 03:03:48;;;;;;;14.80;13.70;;;26.60;71.10;;;;;;5049595;28;20584;-68
2022/08/19 03:06:18;;;;;;;13.80;12.70;;;26.50;70.90;;;;;;5052622;28;20530;-66
2022/08/19 03:08:48;;;;;;;21.40;19.50;;;26.50;71.20;;;;;;5038660;28;20552;-66
2022/08/19 03:11:20;;;;;;;11.40;10.40;;;26.60;70.80;;;;;;5046712;28;20472;-66
2022/08/19 03:13:50;;;;;;;23.17;21.07;;;26.60;71.10;;;;;;5051569;28;20492;-69
2022/08/19 03:16:20;;;;;;;14.30;13.07;;;26.50;70.80;;;;;;5054180;28;20550;-66
2022/08/19 03:18:48;;;;;;;11.73;10.83;;;26.40;70.40;;;;;;5055681;28;20539;-69
2022/08/19 03:21:18;;;;;;;15.00;13.60;;;26.40;71.20;;;;;;5062469;28;20450;-66
2022/08/19 03:23:46;;;;;;;13.40;12.30;;;26.50;71.20;;;;;;5054699;28;20546;-66
2022/08/19 03:26:15;;;;;;;12.00;11.10;;;26.60;70.90;;;;;;5054400;28;20826;-66
2022/08/19 03:28:49;;;;;;;18.00;16.43;;;26.70;70.60;;;;;;5058833;28;20441;-66
2022/08/19 03:31:27;;;;;;;20.40;18.47;;;26.60;70.80;;;;;;5055579;28;20473;-66
2022/08/19 03:34:18;;;;;;;16.13;14.70;;;26.60;70.50;;;;;;5067483;28;20961;-66
2022/08/19 03:36:47;;;;;;;21.77;19.80;;;26.40;71.10;;;;;;5055963;28;20552;-66
2022/08/19 03:39:16;;;;;;;19.13;17.53;;;26.30;70.90;;;;;;5047862;28;20560;-66
2022/08/19 03:41:46;;;;;;;22.47;20.37;;;26.20;71.80;;;;;;5060234;28;20544;-68
2022/08/19 03:44:20;;;;;;;12.93;11.60;;;26.20;71.70;;;;;;5058476;28;20496;-66
2022/08/19 03:46:50;;;;;;;22.93;20.83;;;26.20;71.70;;;;;;5050502;28;20516;-66
2022/08/19 03:49:19;;;;;;;12.10;11.10;;;26.30;71.60;;;;;;5034642;28;20523;-67
2022/08/19 03:51:50;;;;;;;13.03;12.00;;;26.30;71.80;;;;;;5036213;28;22074;-72
2022/08/19 03:54:20;;;;;;;16.40;14.93;;;26.40;71.40;;;;;;5036094;28;20473;-68
2022/08/19 03:56:51;;;;;;;14.67;13.50;;;26.60;71.00;;;;;;5049338;28;20477;-66
2022/08/19 03:59:26;;;;;;;20.67;18.77;;;26.60;70.50;;;;;;5034093;28;20873;-67
2022/08/19 04:01:55;;;;;;;12.40;11.30;;;26.60;70.50;;;;;;5046610;28;20453;-66
2022/08/19 04:04:24;;;;;;;14.00;12.90;;;26.50;70.60;;;;;;5049346;28;20489;-66
2022/08/19 04:06:56;;;;;;;17.53;16.00;;;26.50;70.60;;;;;;5038816;28;20490;-66
2022/08/19 04:09:25;;;;;;;22.50;20.40;;;26.50;70.40;;;;;;5033760;28;20457;-66
2022/08/19 04:11:56;;;;;;;19.00;17.27;;;26.60;70.30;;;;;;5038790;28;20468;-66
2022/08/19 04:14:29;;;;;;;12.77;11.83;;;26.60;70.50;;;;;;5047535;28;20847;-66
2022/08/19 04:16:57;;;;;;;16.60;15.00;;;26.60;70.60;;;;;;5049475;28;20963;-66
2022/08/19 04:19:27;;;;;;;21.37;19.30;;;26.60;70.60;;;;;;5059732;28;20475;-66
2022/08/19 04:21:56;;;;;;;18.90;17.10;;;26.40;70.50;;;;;;5036412;28;20533;-68
2022/08/19 04:24:24;;;;;;;12.67;11.67;;;26.40;71.00;;;;;;5048915;28;20593;-66
2022/08/19 04:26:53;;;;;;;24.03;21.60;;;26.40;71.10;;;;;;5053889;28;20872;-68
2022/08/19 04:29:24;;;;;;;15.40;14.17;;;26.40;70.70;;;;;;5052031;28;20487;-69
2022/08/19 04:31:56;;;;;;;23.13;20.83;;;26.30;71.10;;;;;;5051106;28;20501;-67
2022/08/19 04:34:28;;;;;;;18.60;16.93;;;26.10;71.20;;;;;;5052416;28;20498;-66
2022/08/19 04:36:58;;;;;;;16.20;14.70;;;25.90;72.10;;;;;;5053470;28;20498;-65
2022/08/19 04:44:58;;;;;;;13.80;12.70;;;26.30;71.70;;;;;;5060023;28;20946;-67
2022/08/19 04:47:28;;;;;;;21.53;19.43;;;26.40;71.20;;;;;;5046744;28;20822;-66
2022/08/19 04:50:16;;;;;;;12.80;11.70;;;26.50;70.90;;;;;;5032764;28;20437;-66
2022/08/19 04:52:46;;;;;;;13.47;12.40;;;26.60;70.70;;;;;;5033451;28;20446;-66
2022/08/19 04:55:14;;;;;;;14.90;13.50;;;26.60;70.70;;;;;;5043886;28;20878;-68
2022/08/19 04:57:42;;;;;;;13.23;12.03;;;26.70;70.50;;;;;;5063011;28;20556;-67
2022/08/19 05:00:11;;;;;;;14.07;12.93;;;26.80;70.30;;;;;;5069851;28;20444;-67
2022/08/19 05:02:41;;;;;;;14.47;13.37;;;26.80;70.40;;;;;;5058037;28;20546;-66
2022/08/19 05:05:10;;;;;;;19.57;17.87;;;26.80;70.30;;;;;;5048741;28;20466;-66
2022/08/19 05:07:39;;;;;;;12.30;11.20;;;26.80;70.30;;;;;;5039860;28;20554;-67
2022/08/19 05:10:08;;;;;;;11.50;10.60;;;26.80;70.10;;;;;;5045785;28;20863;-69
2022/08/19 05:12:37;;;;;;;14.03;12.60;;;26.90;70.00;;;;;;5038661;28;20529;-72
2022/08/19 05:15:08;;;;;;;12.67;11.60;;;27.00;69.80;;;;;;5049867;28;20445;-66
2022/08/19 05:17:36;;;;;;;12.67;11.73;;;27.00;69.80;;;;;;5059503;28;20477;-69
2022/08/19 05:22:55;;;;;;;21.90;20.00;;;27.00;69.80;;;;;;5050344;28;20846;-67
2022/08/19 05:25:24;;;;;;;13.20;12.00;;;26.90;69.90;;;;;;5051939;28;20480;-66
2022/08/19 05:27:52;;;;;;;15.20;13.80;;;26.70;70.20;;;;;;5056598;28;20451;-66
2022/08/19 05:30:23;;;;;;;15.93;14.60;;;26.60;70.40;;;;;;5072484;28;20424;-69
2022/08/19 05:33:12;;;;;;;23.27;21.00;;;26.60;70.80;;;;;;5043991;28;20466;-66
2022/08/19 05:35:41;;;;;;;23.70;21.37;;;26.60;70.80;;;;;;5062373;28;20937;-66
2022/08/19 05:38:10;;;;;;;24.47;22.07;;;26.40;71.10;;;;;;5048460;28;20557;-66
2022/08/19 05:40:39;;;;;;;23.07;20.57;;;26.30;71.30;;;;;;5047488;28;20713;-66
2022/08/19 05:43:09;;;;;;;25.33;22.77;;;26.10;72.00;;;;;;5049393;28;20577;-67
2022/08/19 05:45:41;;;;;;;25.40;22.90;;;26.10;71.80;;;;;;5042564;28;20949;-69
2022/08/19 05:48:10;;;;;;;24.27;21.80;;;26.00;72.40;;;;;;5034161;28;20508;-66
2022/08/19 05:50:41;;;;;;;27.80;24.87;;;25.80;72.50;;;;;;5041920;28;20801;-66
2022/08/19 05:53:10;;;;;;;28.07;25.23;;;25.70;73.70;;;;;;5048469;28;20537;-66
2022/08/19 05:55:39;;;;;;;26.13;22.60;;;25.50;73.70;;;;;;5040886;28;20471;-67
2022/08/19 05:58:07;;;;;;;13.80;12.70;;;25.30;73.90;;;;;;5042893;28;20474;-66
2022/08/19 06:00:36;;;;;;;21.57;19.67;;;25.20;74.60;;;;;;5047054;28;20482;-69
2022/08/19 06:03:04;;;;;;;13.87;12.63;;;25.40;74.10;;;;;;5049323;28;20980;-66
2022/08/19 06:05:41;;;;;;;14.80;13.50;;;25.50;73.80;;;;;;5039788;28;20461;-71
2022/08/19 06:08:20;;;;;;;13.80;12.40;;;25.70;73.30;;;;;;5047807;28;20803;-67
2022/08/19 06:11:18;;;;;;;12.97;11.90;;;26.00;72.60;;;;;;5049405;28;20452;-67
2022/08/19 06:13:50;;;;;;;12.50;11.43;;;26.30;71.90;;;;;;5045212;28;20457;-66
2022/08/19 06:16:27;;;;;;;13.00;11.90;;;26.40;71.60;;;;;;5044120;28;20482;-66
2022/08/19 06:18:57;;;;;;;19.17;17.00;;;26.60;70.90;;;;;;5048493;28;20522;-68
2022/08/19 06:21:28;;;;;;;16.03;14.47;;;26.70;70.60;;;;;;5039266;28;20861;-67
2022/08/19 06:23:58;;;;;;;21.93;19.63;;;26.70;70.60;;;;;;5046682;28;20467;-68
2022/08/19 06:26:27;;;;;;;15.83;14.20;;;26.70;71.30;;;;;;5041897;28;20476;-68
2022/08/19 06:28:55;;;;;;;13.40;12.13;;;26.70;71.10;;;;;;5047096;28;20871;-67
2022/08/19 06:31:26;;;;;;;13.50;12.30;;;26.70;71.10;;;;;;5048228;28;20456;-66
2022/08/19 06:33:55;;;;;;;14.77;13.13;;;26.70;71.00;;;;;;5051848;28;20504;-66
2022/08/19 06:36:31;;;;;;;14.97;13.57;;;26.80;70.80;;;;;;5062004;28;20535;-67
2022/08/19 06:39:02;;;;;;;22.23;19.97;;;26.80;71.00;;;;;;5049035;28;20561;-67
2022/08/19 06:41:31;;;;;;;17.57;15.80;;;26.70;71.20;;;;;;5047366;28;20549;-69
2022/08/19 06:43:59;;;;;;;15.50;13.87;;;26.60;71.20;;;;;;5052268;28;20504;-67
2022/08/19 06:46:28;;;;;;;13.80;12.60;;;26.60;72.20;;;;;;5040867;28;20486;-72
2022/08/19 06:49:00;;;;;;;14.90;13.40;;;26.70;71.60;;;;;;5051018;28;20944;-71
2022/08/19 06:51:29;;;;;;;12.90;11.67;;;26.70;71.30;;;;;;5046616;28;20520;-67
2022/08/19 06:54:01;;;;;;;20.70;18.60;;;26.70;71.10;;;;;;5065112;28;20493;-68
2022/08/19 06:56:33;;;;;;;14.67;13.00;;;26.70;70.90;;;;;;5063911;28;20439;-70
2022/08/19 06:59:02;;;;;;;14.63;12.47;;;26.70;70.90;;;;;;5068949;28;20954;-73
2022/08/19 07:01:30;;;;;;;14.37;12.57;;;26.60;71.00;;;;;;5068049;28;20488;-70
2022/08/19 07:03:58;;;;;;;14.60;13.30;;;26.70;70.60;;;;;;5053748;28;21819;-67
2022/08/19 07:06:26;;;;;;;14.60;12.57;;;26.60;70.60;;;;;;5038574;28;20922;-67
2022/08/19 07:09:14;;;;;;;14.57;13.13;;;26.40;71.00;;;;;;5051683;28;20476;-70
2022/08/19 07:11:47;;;;;;;13.00;11.90;;;26.50;71.00;;;;;;5035936;28;20462;-71
2022/08/19 07:14:17;;;;;;;16.63;14.53;;;26.50;71.00;;;;;;5044281;28;20449;-67
2022/08/19 07:16:49;;;;;;;14.20;12.80;;;26.50;70.80;;;;;;5050145;28;20868;-69
2022/08/19 07:19:19;;;;;;;15.87;14.50;;;26.50;70.60;;;;;;5056967;28;20473;-71
2022/08/19 07:21:52;;;;;;;19.10;17.30;;;26.40;70.70;;;;;;5053051;28;20449;-73
2022/08/19 07:24:25;;;;;;;15.53;14.13;;;26.20;71.20;;;;;;5048645;28;20871;-68
2022/08/19 07:26:56;;;;;;;13.20;12.10;;;26.10;71.50;;;;;;5056520;28;20925;-68
2022/08/19 07:29:24;;;;;;;14.97;13.67;;;26.20;71.50;;;;;;5037860;28;20454;-70
2022/08/19 07:31:58;;;;;;;14.07;12.87;;;26.30;71.20;;;;;;5038346;28;20476;-68
2022/08/19 07:34:29;;;;;;;15.33;14.00;;;26.40;70.90;;;;;;5050241;28;20540;-69
2022/08/19 07:36:58;;;;;;;22.47;20.27;;;26.50;70.70;;;;;;5051127;28;20503;-70
2022/08/19 07:39:30;;;;;;;13.07;11.87;;;26.60;71.00;;;;;;5050407;28;20524;-68
2022/08/19 07:42:01;;;;;;;14.17;12.80;;;26.60;70.70;;;;;;5038925;28;20557;-68
2022/08/19 07:44:29;;;;;;;14.23;12.83;;;26.70;70.50;;;;;;5060599;28;20447;-73
2022/08/19 07:46:59;;;;;;;18.70;17.03;;;26.60;70.50;;;;;;5058167;28;20477;-69
2022/08/19 07:49:29;;;;;;;21.73;19.60;;;26.60;70.70;;;;;;5061102;28;20488;-69
2022/08/19 07:52:01;;;;;;;20.07;18.17;;;26.60;70.80;;;;;;5068214;28;20436;-67
2022/08/19 07:54:34;;;;;;;14.87;13.47;;;26.50;70.90;;;;;;5057870;28;20456;-68
2022/08/19 07:57:02;;;;;;;21.33;19.27;;;26.50;70.90;;;;;;5062071;28;20485;-68
2022/08/19 07:59:31;;;;;;;13.50;12.20;;;26.40;71.20;;;;;;5051020;28;20528;-73
2022/08/19 08:02:00;;;;;;;12.37;10.97;;;26.50;70.80;;;;;;5051720;28;20495;-73
2022/08/19 08:10:05;;;;;;;12.10;11.03;;;26.90;69.60;;;;;;5050874;28;20947;-80
2022/08/19 08:12:42;;;;;;;12.67;11.40;;;26.90;69.40;;;;;;5041636;28;20798;-72
2022/08/19 08:15:25;;;;;;;12.90;11.80;;;27.00;69.10;;;;;;5060395;28;20942;-70
2022/08/19 08:17:57;;;;;;;11.23;10.20;;;27.00;68.90;;;;;;5037515;28;20469;-71
2022/08/19 08:20:25;;;;;;;12.50;11.50;;;27.10;68.80;;;;;;5050693;28;20515;-71
2022/08/19 08:25:40;;;;;;;12.43;11.30;;;27.20;68.50;;;;;;5048911;28;20468;-71
2022/08/19 08:28:10;;;;;;;13.40;12.40;;;27.20;68.60;;;;;;5043270;28;20953;-71
2022/08/19 08:30:47;;;;;;;11.70;10.77;;;27.20;68.50;;;;;;5049123;28;20461;-72
2022/08/19 08:33:19;;;;;;;11.80;10.90;;;27.20;68.40;;;;;;5044103;28;20786;-72
2022/08/19 08:36:02;;;;;;;11.50;10.30;;;27.20;68.30;;;;;;5048035;28;20441;-71
2022/08/19 08:38:31;;;;;;;12.80;11.50;;;27.20;68.40;;;;;;5044319;28;21096;-71
2022/08/19 08:41:34;;;;;;;12.33;11.27;;;27.30;68.40;;;;;;5040031;28;20441;-71
2022/08/19 08:44:04;;;;;;;12.10;11.00;;;27.30;68.20;;;;;;5037483;28;20997;-71
2022/08/19 08:46:39;;;;;;;12.40;11.40;;;27.30;68.10;;;;;;5039760;28;20463;-74
2022/08/19 08:49:21;;;;;;;11.43;10.43;;;27.30;68.20;;;;;;5035662;28;20931;-72
2022/08/19 08:51:52;;;;;;;11.13;10.13;;;27.30;68.10;;;;;;5041061;28;20536;-71
2022/08/19 08:54:31;;;;;;;12.20;11.10;;;27.30;68.00;;;;;;5038271;28;20458;-70
2022/08/19 08:57:05;;;;;;;11.00;10.10;;;27.30;68.10;;;;;;5037827;28;20460;-70
2022/08/19 08:59:37;;;;;;;11.27;10.23;;;27.30;68.00;;;;;;5040052;28;20835;-71
2022/08/19 09:02:05;;;;;;;11.53;10.60;;;27.30;68.10;;;;;;5035189;28;20554;-70
2022/08/19 09:04:35;;;;;;;11.70;10.80;;;27.30;68.00;;;;;;5041901;28;20840;-70
2022/08/19 09:07:19;;;;;;;12.17;11.07;;;27.30;68.00;;;;;;5037290;28;20570;-70
2022/08/19 09:10:10;;;;;;;10.90;10.00;;;27.30;68.00;;;;;;5030850;28;20462;-72
2022/08/19 09:12:49;;;;;;;12.00;10.93;;;27.30;67.90;;;;;;5044140;28;20921;-71
2022/08/19 09:15:23;;;;;;;11.37;10.50;;;27.30;67.90;;;;;;5045435;28;20779;-73
2022/08/19 09:18:03;;;;;;;11.53;10.43;;;27.30;67.80;;;;;;5033633;28;20532;-72
2022/08/19 09:20:34;;;;;;;11.77;10.77;;;27.30;67.80;;;;;;5038912;28;20504;-70
2022/08/19 09:23:03;;;;;;;11.40;10.50;;;27.30;67.80;;;;;;5052346;28;20449;-73
2022/08/19 09:25:34;;;;;;;10.77;9.87;;;27.30;67.80;;;;;;5040972;28;20795;-75
2022/08/19 09:28:04;;;;;;;11.43;10.53;;;27.30;67.80;;;;;;5034736;28;21244;-71
2022/08/19 09:30:52;;;;;;;11.20;10.20;;;27.30;67.80;;;;;;5039559;28;20800;-69
2022/08/19 09:33:21;;;;;;;11.63;10.63;;;27.30;67.70;;;;;;5040711;28;20821;-71
2022/08/19 09:35:49;;;;;;;11.33;10.43;;;27.30;67.70;;;;;;5040334;28;20456;-70
2022/08/19 09:38:21;;;;;;;12.50;11.47;;;27.30;67.70;;;;;;5040540;28;20461;-70
2022/08/19 09:40:50;;;;;;;11.53;10.53;;;27.40;67.70;;;;;;5029606;28;20541;-71
2022/08/19 09:43:19;;;;;;;12.33;11.13;;;27.40;67.70;;;;;;5039617;28;20470;-72
2022/08/19 09:46:01;;;;;;;12.07;11.07;;;27.40;67.60;;;;;;5035752;28;21031;-77
2022/08/19 09:48:30;;;;;;;11.03;10.13;;;27.40;67.60;;;;;;5041933;28;20492;-71
2022/08/19 09:51:04;;;;;;;10.80;9.80;;;27.40;67.60;;;;;;5034494;28;20940;-73
2022/08/19 09:53:32;;;;;;;10.43;9.53;;;27.40;67.50;;;;;;5042806;28;20457;-70
2022/08/19 09:56:01;;;;;;;13.00;11.90;;;27.40;67.50;;;;;;5042345;28;20481;-67
2022/08/19 09:58:32;;;;;;;12.47;11.47;;;27.40;67.80;;;;;;5040135;28;20474;-68
2022/08/19 10:01:02;;;;;;;13.63;12.33;;;27.30;68.60;;;;;;5039887;28;20482;-72
2022/08/19 10:03:32;;;;;;;15.03;13.63;;;27.20;68.80;;;;;;5040965;28;20520;-74
2022/08/19 10:06:04;;;;;;;14.67;13.37;;;27.20;68.90;;;;;;5046938;28;20449;-72
2022/08/19 10:09:18;;;;;;;14.43;12.97;;;27.10;69.10;;;;;;5046707;28;21021;-83
2022/08/19 10:12:02;;;;;;;15.30;13.90;;;27.10;69.40;;;;;;5042616;28;20456;-72
2022/08/19 10:14:32;;;;;;;15.27;13.77;;;27.10;69.40;;;;;;5043773;28;20539;-80
2022/08/19 10:17:02;;;;;;;14.47;13.00;;;27.10;69.50;;;;;;5048032;28;20560;-79
2022/08/19 10:19:44;;;;;;;15.63;14.00;;;27.20;69.20;;;;;;5035533;28;20513;-77
2022/08/19 10:22:23;;;;;;;14.20;13.00;;;27.20;69.10;;;;;;5040086;28;20452;-77
2022/08/19 10:24:53;;;;;;;14.20;12.87;;;27.20;68.80;;;;;;5047526;28;20854;-76
2022/08/19 10:27:22;;;;;;;15.13;13.83;;;27.30;68.70;;;;;;5038468;28;20451;-78
2022/08/19 10:29:51;;;;;;;14.67;13.37;;;27.30;68.50;;;;;;5043317;28;20496;-78
2022/08/19 10:32:23;;;;;;;15.10;13.80;;;27.30;68.70;;;;;;5040286;28;20463;-75
2022/08/19 10:35:01;;;;;;;14.43;13.23;;;27.30;68.80;;;;;;5042839;28;20552;-71
2022/08/19 10:37:32;;;;;;;23.90;21.60;;;27.40;68.70;;;;;;5047658;28;20437;-72
2022/08/19 10:40:03;;;;;;;16.67;15.07;;;27.40;69.20;;;;;;5043928;28;20563;-72
2022/08/19 10:42:31;;;;;;;15.30;14.00;;;27.30;68.80;;;;;;5038063;28;20455;-72
2022/08/19 10:45:01;;;;;;;14.80;13.50;;;27.20;69.10;;;;;;5040963;28;20464;-72
2022/08/19 10:47:31;;;;;;;17.93;16.07;;;27.20;69.20;;;;;;5043223;28;20454;-72
2022/08/19 10:52:48;;;;;;;14.30;12.90;;;27.10;69.60;;;;;;5048522;28;20987;-72
2022/08/19 10:58:10;;;;;;;23.93;21.73;;;27.00;69.80;;;;;;5039612;28;20471;-70
2022/08/19 11:00:41;;;;;;;23.03;20.83;;;26.90;70.10;;;;;;5043068;28;20499;-72
2022/08/19 11:03:10;;;;;;;23.57;21.20;;;26.60;70.50;;;;;;5046619;28;20478;-71
2022/08/19 11:05:38;;;;;;;23.57;21.33;;;26.20;71.80;;;;;;5045469;28;20955;-74
2022/08/19 11:08:11;;;;;;;24.53;22.10;;;26.00;72.40;;;;;;5045827;28;20498;-73
2022/08/19 11:10:57;;;;;;;23.00;20.90;;;25.70;73.10;;;;;;5044464;28;20551;-72
2022/08/19 11:13:26;;;;;;;24.00;21.83;;;25.30;74.10;;;;;;5044418;28;20452;-71
2022/08/19 11:16:00;;;;;;;17.30;15.70;;;25.10;74.80;;;;;;5048526;28;20858;-76
2022/08/19 11:18:36;;;;;;;23.87;21.57;;;25.00;75.50;;;;;;5046143;28;20865;-71
2022/08/19 11:23:58;;;;;;;25.20;22.60;;;24.50;77.10;;;;;;5050903;28;20868;-72
2022/08/19 11:26:30;;;;;;;23.53;20.93;;;24.50;77.30;;;;;;5051010;28;20798;-71
2022/08/19 11:28:59;;;;;;;23.47;21.27;;;24.30;77.40;;;;;;5046663;28;20965;-71
2022/08/19 11:31:31;;;;;;;23.33;21.13;;;24.20;78.10;;;;;;5078354;28;20838;-72
2022/08/19 11:34:03;;;;;;;17.57;15.97;;;24.20;78.20;;;;;;5041303;28;20929;-72
2022/08/19 11:36:32;;;;;;;25.40;22.83;;;24.20;78.20;;;;;;5047154;28;20492;-71
2022/08/19 11:39:02;;;;;;;23.90;21.60;;;24.20;78.50;;;;;;5038241;28;20454;-74
2022/08/19 11:41:31;;;;;;;25.60;23.00;;;24.10;78.50;;;;;;5041869;28;20506;-71
2022/08/19 11:44:08;;;;;;;32.70;23.80;;;24.20;78.50;;;;;;5045309;28;20529;-74
2022/08/19 11:46:40;;;;;;;24.40;21.97;;;24.20;78.60;;;;;;5044341;28;20459;-72
2022/08/19 11:49:09;;;;;;;25.60;22.53;;;24.20;78.50;;;;;;5038022;28;20498;-74
2022/08/19 11:51:41;;;;;;;24.83;22.47;;;24.20;78.70;;;;;;5044792;28;20505;-71
2022/08/19 11:54:10;;;;;;;27.10;24.37;;;24.30;78.00;;;;;;5048186;28;20450;-74
2022/08/19 11:56:39;;;;;;;24.17;21.87;;;24.40;78.40;;;;;;5044683;28;20538;-77
2022/08/19 11:59:08;;;;;;;32.07;25.40;;;24.50;78.30;;;;;;5042757;28;20452;-73
2022/08/19 12:01:43;;;;;;;27.07;24.13;;;24.50;78.20;;;;;;5043181;28;20508;-72
2022/08/19 12:04:12;;;;;;;26.90;24.20;;;24.40;78.60;;;;;;5039621;28;20547;-72
2022/08/19 12:06:41;;;;;;;26.03;23.40;;;24.40;78.30;;;;;;5046548;28;20472;-72
2022/08/19 12:09:11;;;;;;;27.53;24.83;;;24.30;78.40;;;;;;5043705;28;20505;-74
2022/08/19 12:11:40;;;;;;;28.87;26.00;;;24.30;78.50;;;;;;5041851;28;20473;-74
2022/08/19 12:14:13;;;;;;;30.33;27.37;;;24.30;79.10;;;;;;5043784;28;20519;-71
2022/08/19 12:16:47;;;;;;;27.83;25.20;;;24.30;79.00;;;;;;5053118;28;20476;-75
2022/08/19 12:19:19;;;;;;;25.60;23.20;;;24.30;79.60;;;;;;5039398;28;20449;-71
2022/08/19 12:21:50;;;;;;;24.93;22.63;;;24.30;78.90;;;;;;5045101;28;20486;-73
2022/08/19 12:24:22;;;;;;;22.23;20.00;;;24.30;79.50;;;;;;5041765;28;21048;-72
2022/08/19 12:26:52;;;;;;;16.17;14.47;;;24.40;79.40;;;;;;5042394;28;20552;-72
2022/08/19 12:29:21;;;;;;;21.40;19.10;;;24.60;78.40;;;;;;5046891;28;20463;-73
2022/08/19 12:31:53;;;;;;;23.80;21.40;;;24.80;77.60;;;;;;5052681;28;20922;-72
2022/08/19 12:34:21;;;;;;;21.67;19.47;;;24.80;77.40;;;;;;5054680;28;20923;-73
2022/08/19 12:36:50;;;;;;;22.93;20.73;;;24.70;77.70;;;;;;5066275;28;21050;-72
2022/08/19 12:39:18;;;;;;;23.50;21.23;;;24.70;77.40;;;;;;5054752;28;20450;-73
2022/08/19 12:41:47;;;;;;;24.03;21.53;;;24.60;78.20;;;;;;5063580;28;20563;-72
2022/08/19 12:44:22;;;;;;;24.13;21.57;;;24.40;78.60;;;;;;5061901;28;20937;-73
2022/08/19 12:47:02;;;;;;;22.90;20.30;;;24.30;79.00;;;;;;5058416;28;20446;-72
2022/08/19 12:49:34;;;;;;;21.57;19.30;;;24.10;79.80;;;;;;5046989;28;20534;-72
2022/08/19 12:52:21;;;;;;;21.10;19.07;;;24.00;80.20;;;;;;5054344;28;20474;-72
2022/08/19 12:54:51;;;;;;;17.83;15.93;;;23.90;80.30;;;;;;5058368;28;20449;-72
2022/08/19 12:57:22;;;;;;;20.40;18.40;;;23.90;80.90;;;;;;5067065;28;20521;-72
2022/08/19 12:59:58;;;;;;;18.20;16.50;;;24.00;80.30;;;;;;5048547;28;20453;-73
2022/08/19 13:02:28;;;;;;;18.47;16.77;;;24.10;79.90;;;;;;5053978;28;20526;-72
2022/08/19 13:04:57;;;;;;;16.73;15.17;;;24.20;79.50;;;;;;5051076;28;20505;-72
2022/08/19 13:07:25;;;;;;;17.27;15.53;;;24.20;79.90;;;;;;5059003;28;20480;-72
2022/08/19 13:09:53;;;;;;;20.87;18.87;;;24.10;79.80;;;;;;5059949;28;20451;-72
2022/08/19 13:12:25;;;;;;;15.30;14.00;;;24.10;80.00;;;;;;5066031;28;20479;-72
2022/08/19 13:14:53;;;;;;;20.40;17.10;;;24.10;80.00;;;;;;5058708;28;20525;-72
2022/08/19 13:17:21;;;;;;;16.60;15.10;;;24.10;80.30;;;;;;5065688;28;20845;-72